Galva, IL (61434)

9:01 PM CDT on August 28, 2016 (GMT -0500)
Collister Farms | | Change Station
Active Advisory: Flash Flood Warning Active Notice: Local Storm Report

Elev 751 ft 41.10 °N, 90.00 °W | Updated 7 minutes ago

Clear
Clear
70.2 °F
Feels Like 70.2 °F
N
0.0
Wind Variable Wind from NNW

Today
High -- | Low -- °F
--% Chance of Precip.
Yesterday
High -- | Low -- °F
Precip. -- in
Pressure 30.17 in
Visibility 10.0 miles
Clouds Clear
Dew Point 66 °F
Humidity 88%
Rainfall 0.00 in
Snow Depth Not available.
6:23 AM 7:38 PM
Waning Crescent, 12% visible
METAR KGBG 290155Z AUTO 00000KT 10SM CLR 21/20 A3017 RMK AO2 LTG DSNT NW T02070200
Pressure 30.17 in
Visibility 10.0 miles
Clouds Clear
Dew Point 66 °F
Humidity 88%
Rainfall 0.00 in
Snow Depth Not available.
6:23 AM 7:38 PM
Waning Crescent, 12% visible
METAR KGBG 290155Z AUTO 00000KT 10SM CLR 21/20 A3017 RMK AO2 LTG DSNT NW T02070200

10-Day Weather Forecast

Almanac

Astronomy

Aug. 28, 2016 Rise Set
Actual Time
Civil Twilight
Nautical Twilight
Astronomical Twilight
Moon
Length of Visible Light
Length of Day
Tomorrow will be .
, % of the Moon is Illuminated

Today's Extremes

State Highs State Lows

Community

WunderPhotos

Upload Photos

1,935,768 photos uploaded!

WunderBlog® & News

Nearby

Air Quality

  Air Quality AQ Index Pollutant
Not available.

Snow Depth

Station Depth Elevation

Earthquake Activity

City Distance Mag. Time & Date
Minimum magnitude displayed is 2.5.

Coastal Water Temperatures

Place Temperature

Stations

Nearby Weather Stations

Station Location Temp. Windchill Dew Point Humidity Wind Precip. Elev Updated Type
                   

Watches & Warnings

Flash Flood Warning
Issued: 6:54 PM CDT Aug. 28, 2016 – National Weather Service

... The Flash Flood Warning remains in effect until 1115 PM CDT for
Henry and Whiteside counties...

At 652 PM CDT... Doppler radar indicated heavy rain across the warned
area. Up to three inches of rain have already fallen. Flash flooding
is already occurring. Flash flooding in urban areas is beginning to
subside, but rural flooding may contiue for some time, especially
south of Interstate 80 in Henry County Illinois.

Some locations that will experience flooding include...
Sterling... Rock Falls... Cambridge... Geneseo... Colona...
Prophetstown... Orion... Atkinson... Annawan... Tampico... Lyndon...
Andover... Hooppole... Deer Grove... Warner... Lynn Center... Emerson...
Osco... Round Grove and Agnew.

Precautionary/preparedness actions...

Turn around... don't drown when encountering flooded roads. Most flood
deaths occur in vehicles.


Lat... Lon 4159 8967 4158 8986 4145 8986 4128 8996
      4129 9043 4143 9041 4153 9018 4180 8990
      4186 8963 4174 8963


Ervin